sensor_id;sensor_type;location;lat;lon;timestamp;P1;durP1;ratioP1;P2;durP2;ratioP2
67941;SDS011;54731;42.600;23.476;2022-10-16T00:01:37;8.83;;;3.73;;
67941;SDS011;54731;42.600;23.476;2022-10-16T00:04:03;6.72;;;3.22;;
67941;SDS011;54731;42.600;23.476;2022-10-16T00:06:29;6.57;;;3.45;;
67941;SDS011;54731;42.600;23.476;2022-10-16T00:08:55;5.03;;;2.90;;
67941;SDS011;54731;42.600;23.476;2022-10-16T00:11:24;7.33;;;3.40;;
67941;SDS011;54731;42.600;23.476;2022-10-16T00:13:54;6.82;;;3.30;;
67941;SDS011;54731;42.600;23.476;2022-10-16T00:16:21;7.73;;;3.33;;
67941;SDS011;54731;42.600;23.476;2022-10-16T00:18:47;5.15;;;2.90;;
67941;SDS011;54731;42.600;23.476;2022-10-16T00:21:20;5.97;;;3.80;;
67941;SDS011;54731;42.600;23.476;2022-10-16T00:23:49;8.70;;;3.45;;
67941;SDS011;54731;42.600;23.476;2022-10-16T00:26:16;7.80;;;3.17;;
67941;SDS011;54731;42.600;23.476;2022-10-16T00:28:45;4.53;;;3.17;;
67941;SDS011;54731;42.600;23.476;2022-10-16T00:31:11;3.78;;;3.00;;
67941;SDS011;54731;42.600;23.476;2022-10-16T00:33:38;5.82;;;3.05;;
67941;SDS011;54731;42.600;23.476;2022-10-16T00:36:04;4.82;;;2.95;;
67941;SDS011;54731;42.600;23.476;2022-10-16T00:38:31;5.57;;;3.37;;
67941;SDS011;54731;42.600;23.476;2022-10-16T00:40:57;7.47;;;3.72;;
67941;SDS011;54731;42.600;23.476;2022-10-16T00:46:03;9.00;;;3.80;;
67941;SDS011;54731;42.600;23.476;2022-10-16T00:48:35;8.35;;;3.10;;
67941;SDS011;54731;42.600;23.476;2022-10-16T00:51:00;5.47;;;3.67;;
67941;SDS011;54731;42.600;23.476;2022-10-16T00:53:26;8.80;;;3.30;;
67941;SDS011;54731;42.600;23.476;2022-10-16T00:55:52;5.95;;;3.25;;
67941;SDS011;54731;42.600;23.476;2022-10-16T00:58:18;5.10;;;3.30;;
67941;SDS011;54731;42.600;23.476;2022-10-16T01:00:44;6.40;;;3.17;;
67941;SDS011;54731;42.600;23.476;2022-10-16T01:03:33;7.30;;;3.55;;
67941;SDS011;54731;42.600;23.476;2022-10-16T01:08:52;5.97;;;3.40;;
67941;SDS011;54731;42.600;23.476;2022-10-16T01:14:09;5.35;;;3.40;;
67941;SDS011;54731;42.600;23.476;2022-10-16T01:16:52;6.40;;;3.38;;
67941;SDS011;54731;42.600;23.476;2022-10-16T01:22:33;6.13;;;3.40;;
67941;SDS011;54731;42.600;23.476;2022-10-16T01:25:05;7.53;;;3.60;;
67941;SDS011;54731;42.600;23.476;2022-10-16T01:27:36;8.23;;;3.67;;
67941;SDS011;54731;42.600;23.476;2022-10-16T01:30:26;7.65;;;3.67;;
67941;SDS011;54731;42.600;23.476;2022-10-16T01:32:57;6.17;;;3.80;;
67941;SDS011;54731;42.600;23.476;2022-10-16T01:35:44;6.13;;;3.78;;
67941;SDS011;54731;42.600;23.476;2022-10-16T01:41:07;8.05;;;3.75;;
67941;SDS011;54731;42.600;23.476;2022-10-16T01:43:44;5.55;;;3.60;;
67941;SDS011;54731;42.600;23.476;2022-10-16T01:46:16;7.60;;;4.20;;
67941;SDS011;54731;42.600;23.476;2022-10-16T01:48:43;5.72;;;3.83;;
67941;SDS011;54731;42.600;23.476;2022-10-16T01:51:10;7.83;;;4.20;;
67941;SDS011;54731;42.600;23.476;2022-10-16T01:53:38;5.82;;;4.35;;
67941;SDS011;54731;42.600;23.476;2022-10-16T01:56:05;8.43;;;4.80;;
67941;SDS011;54731;42.600;23.476;2022-10-16T01:58:35;7.55;;;4.30;;
67941;SDS011;54731;42.600;23.476;2022-10-16T02:01:05;9.48;;;4.75;;
67941;SDS011;54731;42.600;23.476;2022-10-16T02:03:34;7.90;;;4.40;;
67941;SDS011;54731;42.600;23.476;2022-10-16T02:06:02;7.63;;;4.47;;
67941;SDS011;54731;42.600;23.476;2022-10-16T02:08:28;10.93;;;4.73;;
67941;SDS011;54731;42.600;23.476;2022-10-16T02:10:56;7.00;;;4.88;;
67941;SDS011;54731;42.600;23.476;2022-10-16T02:13:24;7.20;;;4.82;;
67941;SDS011;54731;42.600;23.476;2022-10-16T02:15:53;9.07;;;4.78;;
67941;SDS011;54731;42.600;23.476;2022-10-16T02:18:19;7.37;;;4.93;;
67941;SDS011;54731;42.600;23.476;2022-10-16T02:29:13;8.13;;;4.28;;
67941;SDS011;54731;42.600;23.476;2022-10-16T02:31:43;9.32;;;4.97;;
67941;SDS011;54731;42.600;23.476;2022-10-16T02:34:11;11.38;;;5.28;;
67941;SDS011;54731;42.600;23.476;2022-10-16T02:36:38;9.60;;;4.82;;
67941;SDS011;54731;42.600;23.476;2022-10-16T02:39:05;10.02;;;5.20;;
67941;SDS011;54731;42.600;23.476;2022-10-16T02:41:31;7.25;;;5.20;;
67941;SDS011;54731;42.600;23.476;2022-10-16T02:43:57;9.80;;;5.28;;
67941;SDS011;54731;42.600;23.476;2022-10-16T02:46:22;8.32;;;5.13;;
67941;SDS011;54731;42.600;23.476;2022-10-16T02:48:48;7.77;;;4.87;;
67941;SDS011;54731;42.600;23.476;2022-10-16T02:51:13;9.20;;;5.10;;
67941;SDS011;54731;42.600;23.476;2022-10-16T02:53:38;8.90;;;4.30;;
67941;SDS011;54731;42.600;23.476;2022-10-16T02:56:04;9.73;;;4.90;;
67941;SDS011;54731;42.600;23.476;2022-10-16T02:58:29;7.70;;;4.83;;
67941;SDS011;54731;42.600;23.476;2022-10-16T03:00:54;8.10;;;4.27;;
67941;SDS011;54731;42.600;23.476;2022-10-16T03:03:20;7.07;;;4.68;;
67941;SDS011;54731;42.600;23.476;2022-10-16T03:05:46;6.47;;;4.47;;
67941;SDS011;54731;42.600;23.476;2022-10-16T03:08:11;7.33;;;4.73;;
67941;SDS011;54731;42.600;23.476;2022-10-16T03:10:37;9.20;;;4.95;;
67941;SDS011;54731;42.600;23.476;2022-10-16T03:13:02;9.07;;;4.50;;
67941;SDS011;54731;42.600;23.476;2022-10-16T03:15:28;7.47;;;4.50;;
67941;SDS011;54731;42.600;23.476;2022-10-16T03:17:53;7.47;;;4.60;;
67941;SDS011;54731;42.600;23.476;2022-10-16T03:20:19;7.03;;;3.95;;
67941;SDS011;54731;42.600;23.476;2022-10-16T03:22:44;6.90;;;4.57;;
67941;SDS011;54731;42.600;23.476;2022-10-16T03:25:09;6.83;;;4.70;;
67941;SDS011;54731;42.600;23.476;2022-10-16T03:27:35;8.47;;;4.07;;
67941;SDS011;54731;42.600;23.476;2022-10-16T03:30:00;7.37;;;4.60;;
67941;SDS011;54731;42.600;23.476;2022-10-16T03:32:25;6.60;;;4.53;;
67941;SDS011;54731;42.600;23.476;2022-10-16T03:34:50;14.60;;;4.63;;
67941;SDS011;54731;42.600;23.476;2022-10-16T03:37:16;6.40;;;4.90;;
67941;SDS011;54731;42.600;23.476;2022-10-16T03:39:41;9.03;;;5.10;;
67941;SDS011;54731;42.600;23.476;2022-10-16T03:42:07;8.80;;;4.63;;
67941;SDS011;54731;42.600;23.476;2022-10-16T03:44:32;9.53;;;5.13;;
67941;SDS011;54731;42.600;23.476;2022-10-16T03:46:57;5.83;;;4.60;;
67941;SDS011;54731;42.600;23.476;2022-10-16T03:49:22;9.50;;;4.90;;
67941;SDS011;54731;42.600;23.476;2022-10-16T03:51:48;8.30;;;4.67;;
67941;SDS011;54731;42.600;23.476;2022-10-16T03:54:13;9.00;;;5.40;;
67941;SDS011;54731;42.600;23.476;2022-10-16T03:56:38;6.10;;;4.37;;
67941;SDS011;54731;42.600;23.476;2022-10-16T03:59:04;11.97;;;5.07;;
67941;SDS011;54731;42.600;23.476;2022-10-16T04:01:29;9.18;;;4.35;;
67941;SDS011;54731;42.600;23.476;2022-10-16T04:03:54;7.80;;;5.40;;
67941;SDS011;54731;42.600;23.476;2022-10-16T04:06:20;6.93;;;4.93;;
67941;SDS011;54731;42.600;23.476;2022-10-16T04:08:45;7.17;;;4.80;;
67941;SDS011;54731;42.600;23.476;2022-10-16T04:11:10;6.97;;;4.60;;
67941;SDS011;54731;42.600;23.476;2022-10-16T04:13:36;9.80;;;4.87;;
67941;SDS011;54731;42.600;23.476;2022-10-16T04:16:01;8.80;;;4.95;;
67941;SDS011;54731;42.600;23.476;2022-10-16T04:18:27;8.40;;;4.57;;
67941;SDS011;54731;42.600;23.476;2022-10-16T04:20:52;8.47;;;5.23;;
67941;SDS011;54731;42.600;23.476;2022-10-16T04:23:18;7.32;;;5.25;;
67941;SDS011;54731;42.600;23.476;2022-10-16T04:25:43;11.17;;;5.43;;
67941;SDS011;54731;42.600;23.476;2022-10-16T04:28:09;6.70;;;5.23;;
67941;SDS011;54731;42.600;23.476;2022-10-16T04:30:34;8.53;;;5.57;;
67941;SDS011;54731;42.600;23.476;2022-10-16T04:33:00;10.10;;;4.60;;
67941;SDS011;54731;42.600;23.476;2022-10-16T04:35:26;8.13;;;5.00;;
67941;SDS011;54731;42.600;23.476;2022-10-16T04:37:51;7.40;;;5.07;;
67941;SDS011;54731;42.600;23.476;2022-10-16T04:40:16;9.50;;;5.77;;
67941;SDS011;54731;42.600;23.476;2022-10-16T04:42:42;11.97;;;6.10;;
67941;SDS011;54731;42.600;23.476;2022-10-16T04:45:07;10.75;;;5.80;;
67941;SDS011;54731;42.600;23.476;2022-10-16T04:47:33;7.80;;;5.22;;
67941;SDS011;54731;42.600;23.476;2022-10-16T04:49:58;11.37;;;5.37;;
67941;SDS011;54731;42.600;23.476;2022-10-16T04:52:24;8.53;;;5.17;;
67941;SDS011;54731;42.600;23.476;2022-10-16T04:54:49;8.85;;;5.35;;
67941;SDS011;54731;42.600;23.476;2022-10-16T04:57:14;9.05;;;5.03;;
67941;SDS011;54731;42.600;23.476;2022-10-16T04:59:40;6.53;;;5.17;;
67941;SDS011;54731;42.600;23.476;2022-10-16T05:02:05;9.00;;;5.70;;
67941;SDS011;54731;42.600;23.476;2022-10-16T05:04:30;7.37;;;5.10;;
67941;SDS011;54731;42.600;23.476;2022-10-16T05:06:56;7.43;;;5.30;;
67941;SDS011;54731;42.600;23.476;2022-10-16T05:09:21;6.40;;;5.57;;
67941;SDS011;54731;42.600;23.476;2022-10-16T05:11:46;7.90;;;5.68;;
67941;SDS011;54731;42.600;23.476;2022-10-16T05:14:12;8.65;;;5.60;;
67941;SDS011;54731;42.600;23.476;2022-10-16T05:16:37;12.37;;;7.60;;
67941;SDS011;54731;42.600;23.476;2022-10-16T05:19:02;12.13;;;8.00;;
67941;SDS011;54731;42.600;23.476;2022-10-16T05:21:28;16.73;;;9.60;;
67941;SDS011;54731;42.600;23.476;2022-10-16T05:23:53;12.67;;;7.40;;
67941;SDS011;54731;42.600;23.476;2022-10-16T05:26:18;11.13;;;6.37;;
67941;SDS011;54731;42.600;23.476;2022-10-16T05:28:44;36.07;;;20.37;;
67941;SDS011;54731;42.600;23.476;2022-10-16T05:31:09;43.88;;;23.52;;
67941;SDS011;54731;42.600;23.476;2022-10-16T05:33:35;37.70;;;20.03;;
67941;SDS011;54731;42.600;23.476;2022-10-16T05:36:01;57.37;;;28.27;;
67941;SDS011;54731;42.600;23.476;2022-10-16T05:38:30;73.18;;;33.90;;
67941;SDS011;54731;42.600;23.476;2022-10-16T05:40:55;377.40;;;125.30;;
67941;SDS011;54731;42.600;23.476;2022-10-16T05:43:21;287.83;;;96.83;;
67941;SDS011;54731;42.600;23.476;2022-10-16T05:45:53;200.88;;;67.65;;
67941;SDS011;54731;42.600;23.476;2022-10-16T05:48:28;56.60;;;23.27;;
67941;SDS011;54731;42.600;23.476;2022-10-16T05:51:01;33.93;;;15.37;;
67941;SDS011;54731;42.600;23.476;2022-10-16T05:53:32;23.00;;;10.43;;
67941;SDS011;54731;42.600;23.476;2022-10-16T05:55:59;16.20;;;8.10;;
67941;SDS011;54731;42.600;23.476;2022-10-16T05:58:25;9.40;;;6.10;;
67941;SDS011;54731;42.600;23.476;2022-10-16T06:00:57;7.68;;;5.10;;
67941;SDS011;54731;42.600;23.476;2022-10-16T06:03:24;16.88;;;9.23;;
67941;SDS011;54731;42.600;23.476;2022-10-16T06:05:49;34.30;;;17.15;;
67941;SDS011;54731;42.600;23.476;2022-10-16T06:08:15;57.75;;;25.65;;
67941;SDS011;54731;42.600;23.476;2022-10-16T06:10:41;53.70;;;24.25;;
67941;SDS011;54731;42.600;23.476;2022-10-16T06:13:07;41.23;;;20.17;;
67941;SDS011;54731;42.600;23.476;2022-10-16T06:15:32;26.25;;;15.27;;
67941;SDS011;54731;42.600;23.476;2022-10-16T06:17:57;21.97;;;11.23;;
67941;SDS011;54731;42.600;23.476;2022-10-16T06:20:23;20.07;;;10.97;;
67941;SDS011;54731;42.600;23.476;2022-10-16T06:22:48;19.40;;;11.00;;
67941;SDS011;54731;42.600;23.476;2022-10-16T06:25:13;14.03;;;9.47;;
67941;SDS011;54731;42.600;23.476;2022-10-16T06:27:39;15.47;;;8.67;;
67941;SDS011;54731;42.600;23.476;2022-10-16T06:30:05;18.10;;;9.75;;
67941;SDS011;54731;42.600;23.476;2022-10-16T06:32:31;14.75;;;9.55;;
67941;SDS011;54731;42.600;23.476;2022-10-16T06:34:56;15.43;;;10.10;;
67941;SDS011;54731;42.600;23.476;2022-10-16T06:37:22;23.60;;;13.37;;
67941;SDS011;54731;42.600;23.476;2022-10-16T06:39:47;25.67;;;15.93;;
67941;SDS011;54731;42.600;23.476;2022-10-16T06:42:12;25.27;;;13.77;;
67941;SDS011;54731;42.600;23.476;2022-10-16T06:44:38;24.40;;;13.13;;
67941;SDS011;54731;42.600;23.476;2022-10-16T06:47:03;24.97;;;11.97;;
67941;SDS011;54731;42.600;23.476;2022-10-16T06:49:28;17.40;;;9.53;;
67941;SDS011;54731;42.600;23.476;2022-10-16T06:51:54;19.42;;;10.68;;
67941;SDS011;54731;42.600;23.476;2022-10-16T06:54:19;17.87;;;9.63;;
67941;SDS011;54731;42.600;23.476;2022-10-16T06:56:44;17.57;;;9.43;;
67941;SDS011;54731;42.600;23.476;2022-10-16T06:59:10;15.83;;;9.47;;
67941;SDS011;54731;42.600;23.476;2022-10-16T07:01:35;15.60;;;10.57;;
67941;SDS011;54731;42.600;23.476;2022-10-16T07:04:01;19.70;;;11.03;;
67941;SDS011;54731;42.600;23.476;2022-10-16T07:06:26;22.90;;;12.95;;
67941;SDS011;54731;42.600;23.476;2022-10-16T07:08:52;20.67;;;11.30;;
67941;SDS011;54731;42.600;23.476;2022-10-16T07:11:19;17.58;;;11.02;;
67941;SDS011;54731;42.600;23.476;2022-10-16T07:13:46;22.00;;;11.57;;
67941;SDS011;54731;42.600;23.476;2022-10-16T07:16:16;25.67;;;11.20;;
67941;SDS011;54731;42.600;23.476;2022-10-16T07:18:44;22.90;;;12.20;;
67941;SDS011;54731;42.600;23.476;2022-10-16T07:21:11;17.27;;;9.55;;
67941;SDS011;54731;42.600;23.476;2022-10-16T07:23:38;17.73;;;10.25;;
67941;SDS011;54731;42.600;23.476;2022-10-16T07:26:05;19.80;;;10.68;;
67941;SDS011;54731;42.600;23.476;2022-10-16T07:28:31;16.88;;;10.55;;
67941;SDS011;54731;42.600;23.476;2022-10-16T07:31:07;21.30;;;10.23;;
67941;SDS011;54731;42.600;23.476;2022-10-16T07:33:34;17.20;;;9.45;;
67941;SDS011;54731;42.600;23.476;2022-10-16T07:36:00;18.33;;;10.77;;
67941;SDS011;54731;42.600;23.476;2022-10-16T07:38:25;16.27;;;9.73;;
67941;SDS011;54731;42.600;23.476;2022-10-16T07:40:58;13.90;;;8.97;;
67941;SDS011;54731;42.600;23.476;2022-10-16T07:43:24;14.85;;;8.57;;
67941;SDS011;54731;42.600;23.476;2022-10-16T07:45:50;14.95;;;9.23;;
67941;SDS011;54731;42.600;23.476;2022-10-16T07:48:16;13.67;;;8.37;;
67941;SDS011;54731;42.600;23.476;2022-10-16T07:50:42;17.33;;;8.23;;
67941;SDS011;54731;42.600;23.476;2022-10-16T07:53:08;12.20;;;7.05;;
67941;SDS011;54731;42.600;23.476;2022-10-16T07:55:34;8.88;;;6.40;;
67941;SDS011;54731;42.600;23.476;2022-10-16T07:57:59;10.23;;;6.67;;
67941;SDS011;54731;42.600;23.476;2022-10-16T08:00:24;13.50;;;6.00;;
67941;SDS011;54731;42.600;23.476;2022-10-16T08:02:50;12.23;;;6.90;;
67941;SDS011;54731;42.600;23.476;2022-10-16T08:05:15;12.07;;;6.43;;
67941;SDS011;54731;42.600;23.476;2022-10-16T08:07:40;9.20;;;6.13;;
67941;SDS011;54731;42.600;23.476;2022-10-16T08:10:06;9.07;;;5.77;;
67941;SDS011;54731;42.600;23.476;2022-10-16T08:12:31;12.60;;;6.23;;
67941;SDS011;54731;42.600;23.476;2022-10-16T08:14:57;12.70;;;6.37;;
67941;SDS011;54731;42.600;23.476;2022-10-16T08:17:22;11.43;;;5.57;;
67941;SDS011;54731;42.600;23.476;2022-10-16T08:19:47;9.60;;;5.30;;
67941;SDS011;54731;42.600;23.476;2022-10-16T08:22:13;9.80;;;5.53;;
67941;SDS011;54731;42.600;23.476;2022-10-16T08:24:39;7.53;;;5.43;;
67941;SDS011;54731;42.600;23.476;2022-10-16T08:27:04;6.70;;;5.43;;
67941;SDS011;54731;42.600;23.476;2022-10-16T08:29:30;7.70;;;5.03;;
67941;SDS011;54731;42.600;23.476;2022-10-16T08:31:55;9.77;;;5.90;;
67941;SDS011;54731;42.600;23.476;2022-10-16T08:34:20;14.80;;;8.73;;
67941;SDS011;54731;42.600;23.476;2022-10-16T08:36:46;9.35;;;5.30;;
67941;SDS011;54731;42.600;23.476;2022-10-16T08:39:11;10.53;;;4.83;;
67941;SDS011;54731;42.600;23.476;2022-10-16T08:44:40;8.57;;;5.05;;
67941;SDS011;54731;42.600;23.476;2022-10-16T08:49:58;9.60;;;5.25;;
67941;SDS011;54731;42.600;23.476;2022-10-16T08:52:32;7.63;;;4.80;;
67941;SDS011;54731;42.600;23.476;2022-10-16T08:55:00;6.93;;;4.35;;
67941;SDS011;54731;42.600;23.476;2022-10-16T08:57:27;10.50;;;6.00;;
67941;SDS011;54731;42.600;23.476;2022-10-16T08:59:53;9.33;;;5.33;;
67941;SDS011;54731;42.600;23.476;2022-10-16T09:02:22;8.85;;;4.65;;
67941;SDS011;54731;42.600;23.476;2022-10-16T09:04:54;5.93;;;4.32;;
67941;SDS011;54731;42.600;23.476;2022-10-16T09:07:41;11.63;;;4.15;;
67941;SDS011;54731;42.600;23.476;2022-10-16T09:10:43;8.77;;;4.57;;
67941;SDS011;54731;42.600;23.476;2022-10-16T09:21:19;8.47;;;4.17;;
67941;SDS011;54731;42.600;23.476;2022-10-16T09:23:48;8.00;;;4.57;;
67941;SDS011;54731;42.600;23.476;2022-10-16T09:26:14;7.67;;;4.13;;
67941;SDS011;54731;42.600;23.476;2022-10-16T09:28:42;9.75;;;4.45;;
67941;SDS011;54731;42.600;23.476;2022-10-16T09:31:18;8.73;;;4.27;;
67941;SDS011;54731;42.600;23.476;2022-10-16T09:33:47;8.45;;;4.82;;
67941;SDS011;54731;42.600;23.476;2022-10-16T09:36:16;10.85;;;5.75;;
67941;SDS011;54731;42.600;23.476;2022-10-16T09:38:44;10.05;;;5.57;;
67941;SDS011;54731;42.600;23.476;2022-10-16T09:41:21;6.80;;;4.87;;
67941;SDS011;54731;42.600;23.476;2022-10-16T09:43:54;10.98;;;6.32;;
67941;SDS011;54731;42.600;23.476;2022-10-16T09:46:24;12.77;;;5.28;;
67941;SDS011;54731;42.600;23.476;2022-10-16T09:48:55;7.15;;;5.03;;
67941;SDS011;54731;42.600;23.476;2022-10-16T09:54:01;6.68;;;4.88;;
67941;SDS011;54731;42.600;23.476;2022-10-16T09:56:36;8.55;;;5.55;;
67941;SDS011;54731;42.600;23.476;2022-10-16T09:59:08;9.65;;;4.82;;
67941;SDS011;54731;42.600;23.476;2022-10-16T10:01:37;9.32;;;5.32;;
67941;SDS011;54731;42.600;23.476;2022-10-16T10:04:05;8.35;;;5.20;;
67941;SDS011;54731;42.600;23.476;2022-10-16T10:06:32;7.18;;;4.85;;
67941;SDS011;54731;42.600;23.476;2022-10-16T10:11:38;14.88;;;5.82;;
67941;SDS011;54731;42.600;23.476;2022-10-16T10:14:15;8.50;;;5.78;;
67941;SDS011;54731;42.600;23.476;2022-10-16T10:16:46;9.18;;;5.28;;
67941;SDS011;54731;42.600;23.476;2022-10-16T10:19:16;9.25;;;6.18;;
67941;SDS011;54731;42.600;23.476;2022-10-16T10:21:43;8.90;;;5.75;;
67941;SDS011;54731;42.600;23.476;2022-10-16T10:24:12;6.60;;;5.50;;
67941;SDS011;54731;42.600;23.476;2022-10-16T10:26:45;12.05;;;5.07;;
67941;SDS011;54731;42.600;23.476;2022-10-16T10:29:27;7.18;;;4.15;;
67941;SDS011;54731;42.600;23.476;2022-10-16T10:32:08;8.75;;;4.28;;
67941;SDS011;54731;42.600;23.476;2022-10-16T10:44:07;8.30;;;3.65;;
67941;SDS011;54731;42.600;23.476;2022-10-16T10:46:42;5.15;;;3.53;;
67941;SDS011;54731;42.600;23.476;2022-10-16T10:52:34;7.72;;;4.13;;
67941;SDS011;54731;42.600;23.476;2022-10-16T11:08:11;8.52;;;4.00;;
67941;SDS011;54731;42.600;23.476;2022-10-16T11:13:35;5.75;;;3.25;;
67941;SDS011;54731;42.600;23.476;2022-10-16T11:21:24;8.50;;;3.00;;
67941;SDS011;54731;42.600;23.476;2022-10-16T11:23:58;5.03;;;3.03;;
67941;SDS011;54731;42.600;23.476;2022-10-16T11:26:41;4.25;;;2.70;;
67941;SDS011;54731;42.600;23.476;2022-10-16T11:29:12;4.07;;;2.80;;
67941;SDS011;54731;42.600;23.476;2022-10-16T11:31:46;4.85;;;3.15;;
67941;SDS011;54731;42.600;23.476;2022-10-16T11:39:19;6.15;;;3.67;;
67941;SDS011;54731;42.600;23.476;2022-10-16T11:41:49;4.72;;;3.20;;
67941;SDS011;54731;42.600;23.476;2022-10-16T11:49:53;2.83;;;1.98;;
67941;SDS011;54731;42.600;23.476;2022-10-16T11:52:25;3.27;;;2.17;;
67941;SDS011;54731;42.600;23.476;2022-10-16T11:55:04;2.95;;;1.88;;
67941;SDS011;54731;42.600;23.476;2022-10-16T11:57:43;3.72;;;2.17;;
67941;SDS011;54731;42.600;23.476;2022-10-16T12:03:11;7.93;;;1.90;;
67941;SDS011;54731;42.600;23.476;2022-10-16T12:08:34;3.30;;;1.80;;
67941;SDS011;54731;42.600;23.476;2022-10-16T12:11:20;3.45;;;2.25;;
67941;SDS011;54731;42.600;23.476;2022-10-16T12:13:49;2.80;;;2.03;;
67941;SDS011;54731;42.600;23.476;2022-10-16T12:18:41;3.07;;;2.00;;
67941;SDS011;54731;42.600;23.476;2022-10-16T12:21:11;25.77;;;23.05;;
67941;SDS011;54731;42.600;23.476;2022-10-16T12:24:00;12.60;;;5.97;;
67941;SDS011;54731;42.600;23.476;2022-10-16T12:26:28;6.20;;;3.33;;
67941;SDS011;54731;42.600;23.476;2022-10-16T12:29:12;5.75;;;4.00;;
67941;SDS011;54731;42.600;23.476;2022-10-16T12:31:46;18.83;;;9.82;;
67941;SDS011;54731;42.600;23.476;2022-10-16T12:34:23;46.80;;;24.40;;
67941;SDS011;54731;42.600;23.476;2022-10-16T12:37:14;10.70;;;5.70;;
67941;SDS011;54731;42.600;23.476;2022-10-16T12:39:43;60.50;;;30.45;;
67941;SDS011;54731;42.600;23.476;2022-10-16T12:42:22;27.03;;;13.37;;
67941;SDS011;54731;42.600;23.476;2022-10-16T12:44:56;10.57;;;6.60;;
67941;SDS011;54731;42.600;23.476;2022-10-16T12:47:22;6.70;;;3.27;;
67941;SDS011;54731;42.600;23.476;2022-10-16T12:49:57;6.70;;;3.08;;
67941;SDS011;54731;42.600;23.476;2022-10-16T12:54:51;8.90;;;3.42;;
67941;SDS011;54731;42.600;23.476;2022-10-16T13:03:13;8.35;;;3.15;;
67941;SDS011;54731;42.600;23.476;2022-10-16T13:06:14;22.90;;;10.37;;
67941;SDS011;54731;42.600;23.476;2022-10-16T13:11:54;15.82;;;7.47;;
67941;SDS011;54731;42.600;23.476;2022-10-16T13:22:57;8.00;;;3.38;;
67941;SDS011;54731;42.600;23.476;2022-10-16T13:25:49;15.52;;;7.13;;
67941;SDS011;54731;42.600;23.476;2022-10-16T13:28:27;9.10;;;4.68;;
67941;SDS011;54731;42.600;23.476;2022-10-16T13:30:56;9.48;;;4.13;;
67941;SDS011;54731;42.600;23.476;2022-10-16T13:33:27;32.47;;;12.60;;
67941;SDS011;54731;42.600;23.476;2022-10-16T13:35:58;18.35;;;7.28;;
67941;SDS011;54731;42.600;23.476;2022-10-16T13:38:25;14.23;;;5.03;;
67941;SDS011;54731;42.600;23.476;2022-10-16T13:43:22;6.27;;;2.63;;
67941;SDS011;54731;42.600;23.476;2022-10-16T13:46:03;4.80;;;2.97;;
67941;SDS011;54731;42.600;23.476;2022-10-16T13:48:31;2.88;;;1.70;;
67941;SDS011;54731;42.600;23.476;2022-10-16T13:51:01;4.40;;;2.75;;
67941;SDS011;54731;42.600;23.476;2022-10-16T13:53:35;6.55;;;3.60;;
67941;SDS011;54731;42.600;23.476;2022-10-16T13:56:02;5.90;;;2.97;;
67941;SDS011;54731;42.600;23.476;2022-10-16T13:58:29;7.07;;;3.28;;
67941;SDS011;54731;42.600;23.476;2022-10-16T14:00:56;3.30;;;2.30;;
67941;SDS011;54731;42.600;23.476;2022-10-16T14:03:23;5.40;;;2.40;;
67941;SDS011;54731;42.600;23.476;2022-10-16T14:05:51;6.72;;;2.33;;
67941;SDS011;54731;42.600;23.476;2022-10-16T14:08:18;5.35;;;2.80;;
67941;SDS011;54731;42.600;23.476;2022-10-16T14:10:47;7.30;;;2.80;;
67941;SDS011;54731;42.600;23.476;2022-10-16T14:13:17;8.30;;;2.63;;
67941;SDS011;54731;42.600;23.476;2022-10-16T14:15:48;5.60;;;2.00;;
67941;SDS011;54731;42.600;23.476;2022-10-16T14:18:18;6.95;;;3.05;;
67941;SDS011;54731;42.600;23.476;2022-10-16T14:20:46;5.38;;;3.05;;
67941;SDS011;54731;42.600;23.476;2022-10-16T14:23:19;6.63;;;4.27;;
67941;SDS011;54731;42.600;23.476;2022-10-16T14:25:47;9.77;;;5.15;;
67941;SDS011;54731;42.600;23.476;2022-10-16T14:30:37;10.07;;;8.00;;
67941;SDS011;54731;42.600;23.476;2022-10-16T14:33:22;10.75;;;7.47;;
67941;SDS011;54731;42.600;23.476;2022-10-16T14:39:03;12.90;;;6.25;;
67941;SDS011;54731;42.600;23.476;2022-10-16T14:41:43;15.03;;;9.90;;
67941;SDS011;54731;42.600;23.476;2022-10-16T14:44:11;16.73;;;8.35;;
67941;SDS011;54731;42.600;23.476;2022-10-16T14:46:38;7.57;;;5.47;;
67941;SDS011;54731;42.600;23.476;2022-10-16T14:51:37;6.05;;;4.05;;
67941;SDS011;54731;42.600;23.476;2022-10-16T14:54:04;9.67;;;3.93;;
67941;SDS011;54731;42.600;23.476;2022-10-16T14:56:30;6.20;;;3.85;;
67941;SDS011;54731;42.600;23.476;2022-10-16T14:58:59;9.70;;;8.70;;
67941;SDS011;54731;42.600;23.476;2022-10-16T15:01:25;7.82;;;6.95;;
67941;SDS011;54731;42.600;23.476;2022-10-16T15:03:50;8.57;;;5.27;;
67941;SDS011;54731;42.600;23.476;2022-10-16T15:06:16;7.30;;;5.33;;
67941;SDS011;54731;42.600;23.476;2022-10-16T15:08:41;8.93;;;4.47;;
67941;SDS011;54731;42.600;23.476;2022-10-16T15:11:14;12.35;;;11.02;;
67941;SDS011;54731;42.600;23.476;2022-10-16T15:13:41;11.88;;;10.68;;
67941;SDS011;54731;42.600;23.476;2022-10-16T15:16:09;11.83;;;10.57;;
67941;SDS011;54731;42.600;23.476;2022-10-16T15:18:37;8.27;;;6.68;;
67941;SDS011;54731;42.600;23.476;2022-10-16T15:21:02;11.97;;;8.43;;
67941;SDS011;54731;42.600;23.476;2022-10-16T15:23:27;8.10;;;5.80;;
67941;SDS011;54731;42.600;23.476;2022-10-16T15:25:53;4.60;;;4.10;;
67941;SDS011;54731;42.600;23.476;2022-10-16T15:28:21;8.35;;;6.25;;
67941;SDS011;54731;42.600;23.476;2022-10-16T15:30:49;6.32;;;3.40;;
67941;SDS011;54731;42.600;23.476;2022-10-16T15:33:16;15.48;;;6.10;;
67941;SDS011;54731;42.600;23.476;2022-10-16T15:35:45;9.55;;;4.68;;
67941;SDS011;54731;42.600;23.476;2022-10-16T15:38:12;9.93;;;7.25;;
67941;SDS011;54731;42.600;23.476;2022-10-16T15:40:38;8.00;;;5.75;;
67941;SDS011;54731;42.600;23.476;2022-10-16T15:43:03;8.60;;;3.60;;
67941;SDS011;54731;42.600;23.476;2022-10-16T15:45:28;8.27;;;4.40;;
67941;SDS011;54731;42.600;23.476;2022-10-16T15:47:54;10.18;;;3.80;;
67941;SDS011;54731;42.600;23.476;2022-10-16T15:50:19;4.67;;;2.63;;
67941;SDS011;54731;42.600;23.476;2022-10-16T15:52:45;5.87;;;2.50;;
67941;SDS011;54731;42.600;23.476;2022-10-16T15:55:11;4.57;;;3.23;;
67941;SDS011;54731;42.600;23.476;2022-10-16T15:57:38;6.43;;;4.10;;
67941;SDS011;54731;42.600;23.476;2022-10-16T16:00:07;6.07;;;2.80;;
67941;SDS011;54731;42.600;23.476;2022-10-16T16:02:34;10.35;;;4.30;;
67941;SDS011;54731;42.600;23.476;2022-10-16T16:04:59;9.13;;;4.70;;
67941;SDS011;54731;42.600;23.476;2022-10-16T16:07:24;12.17;;;9.03;;
67941;SDS011;54731;42.600;23.476;2022-10-16T16:09:50;11.27;;;5.47;;
67941;SDS011;54731;42.600;23.476;2022-10-16T16:12:15;13.73;;;9.57;;
67941;SDS011;54731;42.600;23.476;2022-10-16T16:14:40;19.98;;;11.55;;
67941;SDS011;54731;42.600;23.476;2022-10-16T16:17:06;34.70;;;18.33;;
67941;SDS011;54731;42.600;23.476;2022-10-16T16:19:32;18.73;;;10.33;;
67941;SDS011;54731;42.600;23.476;2022-10-16T16:21:57;28.00;;;16.35;;
67941;SDS011;54731;42.600;23.476;2022-10-16T16:24:22;42.38;;;25.02;;
67941;SDS011;54731;42.600;23.476;2022-10-16T16:26:48;16.97;;;9.60;;
67941;SDS011;54731;42.600;23.476;2022-10-16T16:29:14;22.50;;;13.50;;
67941;SDS011;54731;42.600;23.476;2022-10-16T16:31:40;36.78;;;20.92;;
67941;SDS011;54731;42.600;23.476;2022-10-16T16:34:06;21.23;;;9.67;;
67941;SDS011;54731;42.600;23.476;2022-10-16T16:36:32;16.60;;;9.38;;
67941;SDS011;54731;42.600;23.476;2022-10-16T16:38:58;11.35;;;4.97;;
67941;SDS011;54731;42.600;23.476;2022-10-16T16:41:27;16.03;;;8.90;;